Time;durP1;ratioP1;P1;durP2;ratioP2;P2;SDS_P1;SDS_P2;PMS_P1;PMS_P2;Temp;Humidity;BMP_temperature;BMP_pressure;BME280_temperature;BME280_humidity;BME280_pressure;Samples;Min_cycle;Max_cycle;Signal;HPM_P1;HPM_P2
2022/02/04 00:20:15;;;;;;;10.63;5.80;;;8.80;84.00;;;;;;4920356;28;20043;-77
2022/02/04 00:20:48;;;;;;;9.75;5.40;;;8.80;83.80;;;;;;4927909;28;20277;-77
2022/02/04 00:23:26;;;;;;;8.93;5.13;;;8.80;83.80;;;;;;4920714;28;20191;-77
2022/02/04 00:26:04;;;;;;;8.25;5.05;;;8.80;83.60;;;;;;4924044;28;20031;-76
2022/02/04 00:28:47;;;;;;;11.57;6.15;;;8.80;83.40;;;;;;4922206;28;20395;-76
2022/02/04 00:33:57;;;;;;;10.88;5.93;;;8.80;83.20;;;;;;4922930;28;20043;-74
2022/02/04 00:38:53;;;;;;;8.20;5.88;;;8.80;82.80;;;;;;4915187;28;20047;-79
2022/02/04 00:41:23;;;;;;;10.32;5.63;;;8.80;82.70;;;;;;4925074;28;20134;-76
2022/02/04 00:43:51;;;;;;;10.15;5.78;;;8.90;82.60;;;;;;4922627;28;20113;-77
2022/02/04 00:46:53;;;;;;;8.60;5.80;;;8.80;82.50;;;;;;4934003;28;20040;-77
2022/02/04 00:49:10;;;;;;;8.32;5.50;;;8.90;82.30;;;;;;4918257;28;20391;-76
2022/02/04 01:26:14;;;;;;;7.80;4.95;;;8.90;81.60;;;;;;4926319;28;20119;-77
2022/02/04 01:28:44;;;;;;;9.80;4.55;;;8.90;81.70;;;;;;4921853;28;20048;-81
2022/02/04 01:31:18;;;;;;;7.78;4.50;;;8.80;81.80;;;;;;4922859;28;20044;-80
2022/02/04 01:33:45;;;;;;;6.85;4.30;;;8.70;81.90;;;;;;4915769;28;20039;-78
2022/02/04 01:36:12;;;;;;;8.82;4.30;;;8.70;82.30;;;;;;4922370;28;20118;-77
2022/02/04 01:38:38;;;;;;;12.05;4.70;;;8.60;82.60;;;;;;4921657;28;20113;-76
2022/02/04 01:41:04;;;;;;;10.30;4.65;;;8.60;82.90;;;;;;4924471;28;20043;-78
2022/02/04 01:43:30;;;;;;;8.60;4.13;;;8.60;83.30;;;;;;4937018;28;20074;-75
2022/02/04 01:46:00;;;;;;;11.43;4.57;;;8.60;83.30;;;;;;4925162;28;20036;-76
2022/02/04 01:48:26;;;;;;;11.77;4.35;;;8.60;83.50;;;;;;4922604;28;20051;-76
2022/02/04 01:50:52;;;;;;;9.18;3.90;;;8.60;83.70;;;;;;4923899;28;20036;-75
2022/02/04 01:53:20;;;;;;;10.07;4.00;;;8.60;83.70;;;;;;4925053;28;20495;-82
2022/02/04 01:55:48;;;;;;;10.27;4.28;;;8.60;83.80;;;;;;4920030;28;20071;-75
2022/02/04 01:58:14;;;;;;;8.90;3.75;;;8.70;83.90;;;;;;4922887;28;20036;-75
2022/02/04 02:00:41;;;;;;;9.73;3.90;;;8.70;84.00;;;;;;4922802;28;20136;-76
2022/02/04 02:03:08;;;;;;;11.55;4.05;;;8.70;83.80;;;;;;4925068;28;20377;-76
2022/02/04 02:05:35;;;;;;;9.38;3.90;;;8.80;83.80;;;;;;4933767;28;20044;-79
2022/02/04 02:08:09;;;;;;;7.53;3.88;;;8.80;83.90;;;;;;4941528;28;20877;-79
2022/02/04 02:10:35;;;;;;;9.05;3.33;;;8.80;83.80;;;;;;4929378;28;20047;-76
2022/02/04 02:15:42;;;;;;;11.75;3.75;;;8.90;83.60;;;;;;4922209;28;20035;-77
2022/02/04 02:41:33;;;;;;;13.20;5.40;;;8.90;84.50;;;;;;4916724;28;20451;-80
2022/02/04 02:43:17;;;;;;;12.02;5.80;;;8.80;84.70;;;;;;4927506;28;20503;-79
2022/02/04 02:51:49;;;;;;;10.25;5.40;;;8.80;85.00;;;;;;4923207;28;20035;-76
2022/02/04 03:01:32;;;;;;;8.52;4.35;;;8.80;84.60;;;;;;4924857;28;20610;-77
2022/02/04 03:04:03;;;;;;;9.63;5.20;;;8.80;84.70;;;;;;4923025;28;20039;-77
2022/02/04 03:06:28;;;;;;;13.52;5.20;;;8.80;84.70;;;;;;4924672;28;20135;-75
2022/02/04 03:08:54;;;;;;;9.77;4.20;;;8.80;84.70;;;;;;4925002;28;20031;-77
2022/02/04 03:11:20;;;;;;;8.77;4.20;;;8.80;84.60;;;;;;4921404;28;20077;-76
2022/02/04 03:13:46;;;;;;;9.18;4.13;;;8.80;84.60;;;;;;4923118;28;20051;-77
2022/02/04 03:16:15;;;;;;;8.57;3.72;;;8.80;84.50;;;;;;4921622;28;20054;-78
2022/02/04 03:18:44;;;;;;;7.15;3.97;;;8.80;84.40;;;;;;4923888;28;20056;-75
2022/02/04 03:21:21;;;;;;;9.82;4.30;;;8.80;84.40;;;;;;4923303;28;20079;-78
2022/02/04 03:23:53;;;;;;;8.88;5.25;;;8.80;84.50;;;;;;4935501;28;20118;-77
2022/02/04 03:26:28;;;;;;;8.68;4.70;;;8.80;84.40;;;;;;4923427;28;20221;-76
2022/02/04 03:28:54;;;;;;;7.32;4.18;;;8.80;84.50;;;;;;4925346;28;20066;-80
2022/02/04 03:31:20;;;;;;;7.50;4.20;;;8.80;84.40;;;;;;4922121;28;20039;-76
2022/02/04 03:33:47;;;;;;;6.55;4.00;;;8.80;84.30;;;;;;4920257;28;20566;-73
2022/02/04 03:36:13;;;;;;;9.45;4.50;;;8.80;84.40;;;;;;4922991;28;20035;-73
2022/02/04 03:38:39;;;;;;;9.43;4.13;;;8.80;84.50;;;;;;4922893;28;20130;-80
2022/02/04 03:41:07;;;;;;;9.80;4.20;;;8.70;84.70;;;;;;4937425;28;20039;-74
2022/02/04 03:43:33;;;;;;;9.88;4.95;;;8.80;84.80;;;;;;4923399;28;20435;-78
2022/02/04 03:45:59;;;;;;;9.27;4.13;;;8.80;84.90;;;;;;4922814;28;20043;-76
2022/02/04 03:48:24;;;;;;;9.93;4.38;;;8.80;85.00;;;;;;4920268;28;20043;-74
2022/02/04 03:50:50;;;;;;;8.65;4.60;;;8.70;85.00;;;;;;4922932;28;20060;-74
2022/02/04 03:53:16;;;;;;;7.32;4.22;;;8.80;85.00;;;;;;4922861;28;20092;-79
2022/02/04 03:55:42;;;;;;;9.10;3.90;;;8.70;85.00;;;;;;4922010;28;20074;-75
2022/02/04 03:58:12;;;;;;;7.20;4.20;;;8.70;85.00;;;;;;4914215;28;20064;-76
2022/02/04 04:00:38;;;;;;;7.70;4.35;;;8.70;84.80;;;;;;4922357;28;20032;-78
2022/02/04 04:03:05;;;;;;;7.60;4.22;;;8.80;84.90;;;;;;4921038;28;20058;-79
2022/02/04 04:05:31;;;;;;;8.40;4.10;;;8.80;84.80;;;;;;4923818;28;20036;-74
2022/02/04 04:07:57;;;;;;;9.60;4.28;;;8.70;84.80;;;;;;4923525;28;20043;-75
2022/02/04 04:10:25;;;;;;;9.50;4.82;;;8.80;85.00;;;;;;4922929;28;20534;-73
2022/02/04 04:12:53;;;;;;;9.57;4.30;;;8.80;85.20;;;;;;4921850;28;20179;-75
2022/02/04 04:15:19;;;;;;;9.15;4.22;;;8.80;85.30;;;;;;4921520;28;20043;-77
2022/02/04 04:17:46;;;;;;;7.18;4.72;;;8.80;85.90;;;;;;4922292;28;20142;-75
2022/02/04 04:20:17;;;;;;;8.48;4.88;;;8.80;86.30;;;;;;4923427;28;20126;-76
2022/02/04 04:22:43;;;;;;;9.35;5.15;;;8.80;86.60;;;;;;4921281;28;20423;-77
2022/02/04 04:25:11;;;;;;;8.18;4.68;;;8.70;87.20;;;;;;4922862;28;20127;-78
2022/02/04 04:27:37;;;;;;;12.43;5.82;;;8.70;87.50;;;;;;4921837;28;20050;-76
2022/02/04 04:30:04;;;;;;;9.95;5.55;;;8.60;87.80;;;;;;4950161;28;20166;-76
2022/02/04 04:32:30;;;;;;;8.98;6.10;;;8.60;88.10;;;;;;4944526;28;20122;-73
2022/02/04 04:34:55;;;;;;;11.52;6.22;;;8.60;88.20;;;;;;4918503;28;20044;-77
2022/02/04 04:37:23;;;;;;;8.57;5.88;;;8.60;88.20;;;;;;4915447;28;20039;-75
2022/02/04 04:42:20;;;;;;;9.57;6.47;;;8.50;88.50;;;;;;4919876;28;20447;-74
2022/02/04 05:31:01;;;;;;;17.90;12.40;;;8.40;90.70;;;;;;4912464;28;20061;-74
2022/02/04 05:33:27;;;;;;;15.73;11.60;;;8.40;90.80;;;;;;4916915;28;20044;-77
2022/02/04 05:35:53;;;;;;;16.15;11.55;;;8.40;90.90;;;;;;4913047;29;20036;-75
2022/02/04 05:38:20;;;;;;;16.48;12.18;;;8.40;90.80;;;;;;4914441;28;20032;-74
2022/02/04 05:40:47;;;;;;;17.55;13.15;;;8.40;90.80;;;;;;4919579;28;20119;-75
2022/02/04 05:43:18;;;;;;;20.75;13.07;;;8.40;90.80;;;;;;4913446;28;20048;-76
2022/02/04 05:45:54;;;;;;;19.17;14.00;;;8.30;90.80;;;;;;4917646;28;20062;-77
2022/02/04 05:48:20;;;;;;;18.40;13.48;;;8.30;90.90;;;;;;4919062;28;20146;-73
2022/02/04 05:53:21;;;;;;;18.27;13.02;;;8.30;90.90;;;;;;4914359;28;20569;-78
2022/02/04 06:00:52;;;;;;;19.33;14.35;;;8.40;90.80;;;;;;4912473;28;20382;-76
2022/02/04 06:12:19;;;;;;;17.60;14.02;;;8.30;90.90;;;;;;4916577;28;20593;-73
2022/02/04 06:22:19;;;;;;;18.00;13.88;;;8.30;90.70;;;;;;4913607;28;20726;-75
2022/02/04 06:24:49;;;;;;;18.90;15.10;;;8.30;90.60;;;;;;4914656;28;20415;-75
2022/02/04 06:27:18;;;;;;;18.13;15.20;;;8.30;90.50;;;;;;4918707;28;20060;-74
2022/02/04 06:29:44;;;;;;;19.67;14.55;;;8.30;90.60;;;;;;4927935;28;20068;-74
2022/02/04 06:32:10;;;;;;;20.08;15.85;;;8.30;90.60;;;;;;4907782;28;20048;-73
2022/02/04 06:34:37;;;;;;;18.00;14.85;;;8.30;90.70;;;;;;4915254;28;20558;-74
2022/02/04 06:37:03;;;;;;;17.98;14.73;;;8.30;90.70;;;;;;4912441;28;20598;-72
2022/02/04 06:39:30;;;;;;;18.85;15.35;;;8.30;90.60;;;;;;4921951;28;20052;-73
2022/02/04 06:41:56;;;;;;;19.08;16.50;;;8.30;90.60;;;;;;4920889;28;20078;-73
2022/02/04 06:44:22;;;;;;;19.05;15.57;;;8.30;90.50;;;;;;4918965;28;20452;-78
2022/02/04 06:46:48;;;;;;;18.85;15.50;;;8.30;90.60;;;;;;4914289;28;20061;-73
2022/02/04 06:49:14;;;;;;;17.30;14.68;;;8.30;90.70;;;;;;4922567;28;20044;-73
2022/02/04 06:51:39;;;;;;;18.08;15.60;;;8.40;90.80;;;;;;4920313;28;20043;-76
2022/02/04 06:54:05;;;;;;;18.17;16.05;;;8.40;90.60;;;;;;4923823;28;20051;-74
2022/02/04 06:56:35;;;;;;;19.10;15.85;;;8.40;90.60;;;;;;4922073;28;20050;-75
2022/02/04 06:59:03;;;;;;;17.15;15.35;;;8.40;90.60;;;;;;4919441;28;20455;-74
2022/02/04 07:01:30;;;;;;;18.70;16.05;;;8.40;90.60;;;;;;4920657;28;20046;-73
2022/02/04 07:03:56;;;;;;;18.98;15.95;;;8.40;90.70;;;;;;4918247;28;20052;-73
2022/02/04 07:06:22;;;;;;;18.80;15.85;;;8.40;90.70;;;;;;4921148;28;20048;-74
2022/02/04 07:14:07;;;;;;;20.83;16.48;;;8.40;90.80;;;;;;4913359;28;20126;-72
2022/02/04 07:16:42;;;;;;;18.35;15.02;;;8.40;90.90;;;;;;4911085;28;20124;-73
2022/02/04 07:21:52;;;;;;;18.90;15.20;;;8.30;90.80;;;;;;4918956;28;20354;-73
2022/02/04 07:24:18;;;;;;;21.77;16.98;;;8.40;90.80;;;;;;4949179;28;20122;-74
2022/02/04 07:26:43;;;;;;;18.30;15.25;;;8.30;90.90;;;;;;4918848;28;20035;-74
2022/02/04 07:29:09;;;;;;;18.23;14.25;;;8.30;90.70;;;;;;4918930;28;20043;-73
2022/02/04 07:31:39;;;;;;;17.40;15.05;;;8.30;90.70;;;;;;4919281;28;20051;-76
2022/02/04 07:34:15;;;;;;;19.25;14.98;;;8.40;90.60;;;;;;4920457;28;20486;-74
2022/02/04 07:42:02;;;;;;;16.98;13.20;;;8.40;90.40;;;;;;4923145;28;20391;-73
2022/02/04 07:44:28;;;;;;;16.45;13.30;;;8.40;90.20;;;;;;4922520;28;20067;-74
2022/02/04 07:46:54;;;;;;;19.20;14.65;;;8.50;90.20;;;;;;4926321;28;20123;-71
2022/02/04 07:49:20;;;;;;;25.13;16.45;;;8.50;90.10;;;;;;4924030;28;20036;-70
2022/02/04 07:51:45;;;;;;;20.55;14.00;;;8.50;90.00;;;;;;4930702;28;20059;-71
2022/02/04 07:54:11;;;;;;;20.00;14.32;;;8.50;90.00;;;;;;4922290;28;20501;-70
2022/02/04 07:56:37;;;;;;;25.25;16.70;;;8.50;90.10;;;;;;4922536;28;20047;-69
2022/02/04 07:59:08;;;;;;;19.05;14.30;;;8.40;90.20;;;;;;4916665;28;20457;-70
2022/02/04 08:01:34;;;;;;;19.10;13.75;;;8.50;90.30;;;;;;4928157;28;20040;-68
2022/02/04 08:04:16;;;;;;;22.55;15.35;;;8.40;90.40;;;;;;4920404;28;20040;-68
2022/02/04 08:06:55;;;;;;;17.67;13.90;;;8.40;90.50;;;;;;4901768;29;20044;-69
2022/02/04 08:23:05;;;;;;;25.05;18.85;;;8.30;91.30;;;;;;4921193;28;20118;-71
2022/02/04 08:49:48;;;;;;;19.75;14.63;;;8.50;91.50;;;;;;4942371;28;20039;-72
2022/02/04 09:00:46;;;;;;;15.93;13.35;;;8.60;91.10;;;;;;4917728;29;20059;-69
2022/02/04 09:03:25;;;;;;;16.42;12.93;;;8.60;90.90;;;;;;4918575;28;20058;-69
2022/02/04 09:06:03;;;;;;;16.40;12.35;;;8.60;90.60;;;;;;4921421;28;20098;-70
2022/02/04 09:08:32;;;;;;;14.40;11.40;;;8.60;90.60;;;;;;4912941;28;20427;-71
2022/02/04 09:11:03;;;;;;;15.15;12.02;;;8.60;90.30;;;;;;4952938;28;20047;-70
2022/02/04 09:19:02;;;;;;;13.48;9.73;;;8.70;89.50;;;;;;4918552;28;20086;-69
2022/02/04 09:24:14;;;;;;;13.38;9.63;;;8.70;89.00;;;;;;4912881;28;20452;-71
2022/02/04 09:26:41;;;;;;;12.45;8.60;;;8.70;88.80;;;;;;4945174;28;20150;-71
2022/02/04 09:29:07;;;;;;;11.60;8.35;;;8.70;88.40;;;;;;4918952;28;20051;-70
2022/02/04 09:31:35;;;;;;;12.65;8.45;;;8.80;88.00;;;;;;4934045;28;20052;-72
2022/02/04 09:34:05;;;;;;;10.27;8.18;;;8.80;87.80;;;;;;4920475;28;20515;-70
2022/02/04 09:36:31;;;;;;;10.23;7.40;;;8.70;87.40;;;;;;4923061;28;20414;-69
2022/02/04 09:38:59;;;;;;;9.50;7.03;;;8.80;87.20;;;;;;4919018;28;20187;-68
2022/02/04 09:41:25;;;;;;;11.48;7.82;;;8.90;87.10;;;;;;4927064;28;20055;-70
2022/02/04 09:43:52;;;;;;;10.05;6.93;;;8.90;86.60;;;;;;4924132;28;20297;-70
2022/02/04 09:46:19;;;;;;;9.70;7.20;;;9.00;86.60;;;;;;4922710;28;20047;-71
2022/02/04 09:48:49;;;;;;;10.15;6.78;;;8.90;86.10;;;;;;4935380;28;20032;-69
2022/02/04 09:51:19;;;;;;;9.35;6.88;;;9.00;86.20;;;;;;4920670;28;20071;-70
2022/02/04 10:06:09;;;;;;;9.00;6.65;;;9.30;84.50;;;;;;4922340;28;20115;-71
2022/02/04 10:08:05;;;;;;;11.48;7.28;;;9.30;84.20;;;;;;4912650;28;20040;-71
2022/02/04 10:13:33;;;;;;;9.38;6.68;;;9.20;84.00;;;;;;4922657;28;20687;-68
2022/02/04 10:16:37;;;;;;;11.23;6.60;;;9.20;83.90;;;;;;4925824;28;20949;-70
2022/02/04 10:19:23;;;;;;;12.00;7.03;;;9.30;83.60;;;;;;4917613;28;20051;-69
2022/02/04 10:21:59;;;;;;;9.98;6.72;;;9.30;83.30;;;;;;4919957;28;20467;-71
2022/02/04 10:24:26;;;;;;;11.73;7.57;;;9.30;83.30;;;;;;4919440;28;20052;-69
2022/02/04 10:27:10;;;;;;;9.85;7.40;;;9.40;83.00;;;;;;4920457;28;20044;-71
2022/02/04 10:29:36;;;;;;;8.98;6.35;;;9.40;82.80;;;;;;4920067;28;20510;-70
2022/02/04 10:32:02;;;;;;;11.43;7.05;;;9.50;82.40;;;;;;4919017;28;20091;-69
2022/02/04 10:34:29;;;;;;;10.05;6.90;;;9.50;82.50;;;;;;4920189;28;20254;-71
2022/02/04 10:39:29;;;;;;;10.43;7.20;;;9.60;82.10;;;;;;4928067;28;20798;-70
2022/02/04 10:48:04;;;;;;;11.50;7.07;;;9.60;81.50;;;;;;4924326;28;20039;-70
2022/02/04 11:03:29;;;;;;;10.65;7.30;;;9.80;81.00;;;;;;4920518;28;20055;-70
2022/02/04 11:06:07;;;;;;;9.88;7.13;;;9.90;80.90;;;;;;4918815;28;20047;-71
2022/02/04 11:11:43;;;;;;;10.38;6.88;;;10.10;80.90;;;;;;4921192;28;20083;-71
2022/02/04 11:36:36;;;;;;;9.77;5.93;;;10.70;77.90;;;;;;4923820;28;20039;-71
2022/02/04 11:54:40;;;;;;;10.20;4.43;;;10.60;76.50;;;;;;4923766;28;20060;-68
2022/02/04 11:57:06;;;;;;;9.52;4.55;;;10.60;76.60;;;;;;4923220;28;20110;-71
2022/02/04 11:59:36;;;;;;;7.65;4.43;;;10.60;76.60;;;;;;4938381;28;20630;-70
2022/02/04 12:02:23;;;;;;;9.43;4.30;;;10.60;76.10;;;;;;4926096;28;20044;-69
2022/02/04 12:05:14;;;;;;;9.43;4.53;;;10.50;76.40;;;;;;4923691;28;20052;-70
2022/02/04 12:08:00;;;;;;;8.60;4.20;;;10.50;76.30;;;;;;4922878;28;20036;-69
2022/02/04 12:10:33;;;;;;;9.98;4.47;;;10.50;76.10;;;;;;4922078;28;20138;-69
2022/02/04 12:13:07;;;;;;;8.52;4.03;;;10.50;76.30;;;;;;4927938;28;20048;-71
2022/02/04 12:16:07;;;;;;;9.05;3.67;;;10.50;76.50;;;;;;4938306;28;20036;-69
2022/02/04 12:18:48;;;;;;;8.93;4.00;;;10.40;76.60;;;;;;4932916;28;20035;-71
2022/02/04 12:21:19;;;;;;;8.65;3.78;;;10.50;76.60;;;;;;4925949;28;20036;-70
2022/02/04 12:23:49;;;;;;;10.88;3.55;;;10.40;77.40;;;;;;4917529;28;20072;-72
2022/02/04 12:26:17;;;;;;;8.45;4.07;;;10.40;78.10;;;;;;4924650;28;20341;-69
2022/02/04 12:28:50;;;;;;;8.18;3.30;;;10.30;78.90;;;;;;4918987;28;20064;-69
2022/02/04 12:31:24;;;;;;;9.32;3.22;;;10.20;80.00;;;;;;4920176;28;20028;-68
2022/02/04 12:34:13;;;;;;;9.88;4.15;;;10.10;80.70;;;;;;4910525;28;20436;-70
2022/02/04 12:36:58;;;;;;;7.75;3.53;;;10.10;81.60;;;;;;4920265;28;20055;-72
2022/02/04 12:39:31;;;;;;;8.30;3.78;;;10.00;81.80;;;;;;4919257;28;20040;-71
2022/02/04 12:41:58;;;;;;;8.68;3.42;;;9.80;83.00;;;;;;4921587;28;20036;-73
2022/02/04 12:44:29;;;;;;;8.38;3.13;;;9.70;83.60;;;;;;4917925;28;20842;-69
2022/02/04 12:47:01;;;;;;;9.88;3.35;;;9.60;84.40;;;;;;4921270;28;20035;-69
2022/02/04 12:49:29;;;;;;;10.75;4.28;;;9.60;85.40;;;;;;4917042;28;20051;-70
2022/02/04 12:52:12;;;;;;;7.97;3.70;;;9.60;86.00;;;;;;4918777;28;20044;-70
2022/02/04 12:54:46;;;;;;;9.38;3.85;;;9.50;86.50;;;;;;4938124;28;20035;-72
2022/02/04 13:00:04;;;;;;;9.50;4.20;;;9.30;87.60;;;;;;4919413;28;20039;-70
2022/02/04 13:07:51;;;;;;;7.20;3.85;;;9.10;88.70;;;;;;4922987;28;20150;-69
2022/02/04 13:10:22;;;;;;;8.50;3.63;;;9.10;89.10;;;;;;4920622;28;20066;-68
2022/02/04 13:12:56;;;;;;;7.25;3.70;;;9.10;89.30;;;;;;4925410;28;20797;-70
2022/02/04 13:15:23;;;;;;;10.77;4.25;;;9.10;89.30;;;;;;4921556;28;20047;-68
2022/02/04 13:17:49;;;;;;;12.90;4.13;;;9.10;89.60;;;;;;4918341;28;20043;-70
2022/02/04 13:20:20;;;;;;;7.03;3.63;;;9.10;89.60;;;;;;4921131;28;20043;-68
2022/02/04 13:22:47;;;;;;;8.40;3.45;;;9.10;89.70;;;;;;4921289;28;20435;-69
2022/02/04 13:25:22;;;;;;;9.98;3.17;;;9.00;89.80;;;;;;4922922;28;20409;-69
2022/02/04 13:28:18;;;;;;;7.90;3.53;;;8.90;90.00;;;;;;4917837;28;20073;-68
2022/02/04 13:31:01;;;;;;;4.45;1.90;;;8.60;88.90;;;;;;4915631;28;20044;-70
2022/02/04 13:33:38;;;;;;;6.85;2.60;;;7.80;86.60;;;;;;4932444;28;20050;-71
2022/02/04 13:44:24;;;;;;;5.38;1.55;;;6.80;88.80;;;;;;4921686;28;20059;-68
2022/02/04 13:47:00;;;;;;;4.20;2.08;;;6.60;89.10;;;;;;4923560;28;20448;-69
2022/02/04 13:49:51;;;;;;;5.32;1.70;;;6.40;89.30;;;;;;4921133;28;20035;-71
2022/02/04 13:52:35;;;;;;;4.72;1.60;;;6.40;89.80;;;;;;4919013;28;20506;-68
2022/02/04 13:55:22;;;;;;;3.58;1.13;;;6.30;89.90;;;;;;4925013;28;20496;-68
2022/02/04 13:58:07;;;;;;;7.32;1.60;;;6.10;89.40;;;;;;4918909;28;20028;-71
2022/02/04 14:00:50;;;;;;;7.10;1.88;;;5.90;89.90;;;;;;4913506;28;20073;-70
2022/02/04 14:03:26;;;;;;;8.30;2.83;;;5.90;90.20;;;;;;4919511;28;20352;-69
2022/02/04 14:06:02;;;;;;;6.38;2.88;;;6.00;90.60;;;;;;4923966;28;20491;-72
2022/02/04 14:08:45;;;;;;;4.53;2.30;;;5.90;90.20;;;;;;4920528;28;20866;-68
2022/02/04 14:11:12;;;;;;;3.13;1.90;;;5.90;89.90;;;;;;4918710;28;20050;-70
2022/02/04 14:13:39;;;;;;;6.18;2.17;;;5.90;89.40;;;;;;4919950;28;20074;-71
2022/02/04 14:16:07;;;;;;;4.95;1.92;;;6.00;89.50;;;;;;4919139;28;20086;-69
2022/02/04 14:18:35;;;;;;;17.55;8.57;;;6.10;89.00;;;;;;4921826;28;20146;-70
2022/02/04 14:21:02;;;;;;;19.23;6.97;;;6.10;88.70;;;;;;4922223;28;20086;-72
2022/02/04 14:23:28;;;;;;;10.35;5.28;;;6.00;88.30;;;;;;4922691;28;20056;-69
2022/02/04 14:26:09;;;;;;;12.73;5.90;;;6.10;88.40;;;;;;4921783;28;20700;-70
2022/02/04 14:31:15;;;;;;;10.55;3.90;;;6.00;88.80;;;;;;4918988;28;20067;-70
2022/02/04 14:36:19;;;;;;;14.38;3.00;;;6.00;88.20;;;;;;4923452;28;20050;-72
2022/02/04 14:52:58;;;;;;;10.70;2.40;;;5.80;88.70;;;;;;4926374;28;20039;-70
2022/02/04 15:03:22;;;;;;;7.88;2.88;;;5.90;87.10;;;;;;4955259;28;20589;-69
2022/02/04 15:06:00;;;;;;;7.75;2.95;;;5.90;86.60;;;;;;4926024;28;20424;-68
2022/02/04 15:08:27;;;;;;;11.82;3.13;;;5.90;86.30;;;;;;4923322;28;20122;-69
2022/02/04 15:10:54;;;;;;;7.78;2.95;;;5.90;86.10;;;;;;4923314;28;20024;-69
2022/02/04 15:13:20;;;;;;;10.90;3.60;;;5.90;86.00;;;;;;4922079;28;20044;-71
2022/02/04 15:15:46;;;;;;;14.68;3.95;;;6.10;86.90;;;;;;4938497;28;20054;-69
2022/02/04 15:18:14;;;;;;;11.30;3.40;;;6.00;86.30;;;;;;4937511;28;20495;-69
2022/02/04 15:20:40;;;;;;;8.18;3.20;;;6.10;86.30;;;;;;4925068;28;20036;-69
2022/02/04 15:23:10;;;;;;;13.50;3.95;;;6.10;85.90;;;;;;4923594;28;20695;-70
2022/02/04 15:25:36;;;;;;;13.50;4.82;;;6.10;86.20;;;;;;4922806;28;20136;-68
2022/02/04 15:30:35;;;;;;;10.32;3.42;;;6.10;85.00;;;;;;4921685;28;20123;-69
2022/02/04 15:33:01;;;;;;;11.85;4.53;;;6.10;84.20;;;;;;4955995;28;20694;-68
2022/02/04 15:35:29;;;;;;;13.90;3.97;;;6.10;84.40;;;;;;4923962;28;20146;-68
2022/02/04 15:37:55;;;;;;;12.13;3.45;;;6.10;84.10;;;;;;4922553;28;20036;-67
2022/02/04 15:40:21;;;;;;;12.23;4.15;;;6.10;84.20;;;;;;4921442;28;20035;-68
2022/02/04 15:42:55;;;;;;;12.50;3.33;;;6.10;84.10;;;;;;4918220;28;20032;-70
2022/02/04 15:53:33;;;;;;;11.43;3.33;;;6.10;84.70;;;;;;4921347;28;20447;-69
2022/02/04 15:59:10;;;;;;;13.70;3.83;;;6.10;84.60;;;;;;4925381;28;20047;-68
2022/02/04 16:04:24;;;;;;;17.45;3.58;;;6.10;83.50;;;;;;4921636;28;19949;-69
2022/02/04 16:06:50;;;;;;;12.20;3.20;;;6.10;82.90;;;;;;4923646;28;20480;-69
2022/02/04 16:09:19;;;;;;;17.38;6.25;;;6.10;82.70;;;;;;4920950;28;20027;-68
2022/02/04 16:14:48;;;;;;;12.10;4.10;;;6.00;83.30;;;;;;4948182;28;20813;-71
2022/02/04 16:17:27;;;;;;;9.82;3.40;;;5.90;83.30;;;;;;4923110;28;20107;-69
2022/02/04 16:20:09;;;;;;;16.98;4.13;;;5.90;83.70;;;;;;4921156;28;20514;-68
2022/02/04 16:30:43;;;;;;;15.10;3.80;;;5.70;83.80;;;;;;4910859;28;20046;-69
2022/02/04 16:33:09;;;;;;;14.38;3.67;;;5.70;83.70;;;;;;4919554;28;20040;-69
2022/02/04 16:35:35;;;;;;;12.75;4.10;;;5.70;83.80;;;;;;4933703;28;20059;-69
2022/02/04 16:38:04;;;;;;;10.45;3.33;;;5.80;83.90;;;;;;4920213;28;20488;-68
2022/02/04 16:40:32;;;;;;;14.80;3.92;;;5.70;84.00;;;;;;4920670;28;20039;-71
2022/02/04 16:42:59;;;;;;;11.50;3.88;;;5.70;84.00;;;;;;4922003;28;20123;-71
2022/02/04 16:45:25;;;;;;;15.35;5.07;;;5.70;83.90;;;;;;4922066;28;20597;-69
2022/02/04 16:47:51;;;;;;;15.40;4.38;;;5.60;84.00;;;;;;4919154;28;20115;-71
2022/02/04 16:50:21;;;;;;;9.43;3.08;;;5.60;84.20;;;;;;4927402;28;20036;-69
2022/02/04 16:52:51;;;;;;;14.50;4.07;;;5.60;84.20;;;;;;4922979;28;20033;-68
2022/02/04 16:55:19;;;;;;;12.02;3.65;;;5.50;84.10;;;;;;4921316;28;20036;-69
2022/02/04 16:57:47;;;;;;;13.75;4.05;;;5.50;83.90;;;;;;4920798;28;20070;-68
2022/02/04 17:00:21;;;;;;;12.50;3.85;;;5.50;83.50;;;;;;4922760;28;20036;-68
2022/02/04 17:02:53;;;;;;;13.25;4.82;;;5.50;83.30;;;;;;4925969;28;20119;-69
2022/02/04 17:05:22;;;;;;;19.60;8.07;;;5.40;83.30;;;;;;4920302;28;20040;-69
2022/02/04 17:07:56;;;;;;;14.75;6.53;;;5.40;82.70;;;;;;4910600;28;20040;-68
2022/02/04 17:10:32;;;;;;;11.68;4.43;;;5.50;82.50;;;;;;4919308;28;20051;-68
2022/02/04 17:13:00;;;;;;;10.25;3.78;;;5.50;82.30;;;;;;4921767;28;21448;-68
2022/02/04 17:15:34;;;;;;;14.05;5.28;;;5.50;82.30;;;;;;4919484;28;20669;-69
2022/02/04 17:18:01;;;;;;;9.68;4.40;;;5.60;82.10;;;;;;4920293;28;20040;-68
2022/02/04 17:20:27;;;;;;;12.85;4.90;;;5.60;82.00;;;;;;4917528;28;20523;-68
2022/02/04 17:22:54;;;;;;;12.38;4.40;;;5.60;82.20;;;;;;4922110;28;20043;-68
2022/02/04 17:25:26;;;;;;;11.90;4.88;;;5.60;82.30;;;;;;4919800;28;20055;-68
2022/02/04 17:27:54;;;;;;;12.32;4.65;;;5.70;82.40;;;;;;4917100;28;20292;-69
2022/02/04 17:30:21;;;;;;;13.95;5.07;;;5.60;82.50;;;;;;4920140;28;20031;-67
2022/02/04 17:32:49;;;;;;;11.82;4.22;;;5.60;82.60;;;;;;4931461;28;20110;-69
2022/02/04 17:35:18;;;;;;;14.52;5.07;;;5.70;82.40;;;;;;4914069;28;20042;-70
2022/02/04 17:37:43;;;;;;;12.23;4.63;;;5.70;82.50;;;;;;4913574;28;20048;-69
2022/02/04 17:40:11;;;;;;;13.82;5.55;;;5.70;82.50;;;;;;4916846;28;20703;-70
2022/02/04 17:42:40;;;;;;;13.48;6.20;;;5.70;82.60;;;;;;4916211;28;20042;-69
2022/02/04 17:45:10;;;;;;;14.45;6.35;;;5.60;82.80;;;;;;4912482;28;20400;-71
2022/02/04 17:47:36;;;;;;;16.50;7.07;;;5.60;83.00;;;;;;4918108;28;20964;-69
2022/02/04 17:50:17;;;;;;;14.95;7.25;;;5.60;83.20;;;;;;4912453;28;20416;-70
2022/02/04 17:52:48;;;;;;;16.60;7.35;;;5.60;83.10;;;;;;4918544;28;20482;-73
2022/02/04 17:55:27;;;;;;;13.45;6.60;;;5.50;83.30;;;;;;4916445;28;20028;-69
2022/02/04 17:57:55;;;;;;;17.17;6.82;;;5.40;83.60;;;;;;4912356;28;20039;-71
2022/02/04 18:00:57;;;;;;;14.52;6.97;;;5.50;83.80;;;;;;4914356;28;20662;-70
2022/02/04 18:08:05;;;;;;;17.80;7.40;;;5.40;84.30;;;;;;4914735;28;20348;-69
2022/02/04 18:10:32;;;;;;;15.52;7.68;;;5.30;84.50;;;;;;4915184;28;20122;-69
2022/02/04 18:12:57;;;;;;;14.93;5.78;;;5.40;84.60;;;;;;4912635;28;20761;-68
2022/02/04 18:15:23;;;;;;;14.15;6.45;;;5.40;84.60;;;;;;4909959;28;20036;-69
2022/02/04 18:17:49;;;;;;;11.95;5.78;;;5.50;84.50;;;;;;4912951;28;20046;-69
2022/02/04 18:20:15;;;;;;;13.63;5.45;;;5.50;84.40;;;;;;4910232;28;20029;-70
2022/02/04 18:22:42;;;;;;;15.55;6.70;;;5.60;84.40;;;;;;4912954;28;20732;-69
2022/02/04 18:25:08;;;;;;;14.70;6.57;;;5.60;84.30;;;;;;4898655;28;20797;-68
2022/02/04 18:27:34;;;;;;;15.43;7.35;;;5.60;84.40;;;;;;4914126;28;20146;-71
2022/02/04 18:30:02;;;;;;;15.55;7.30;;;5.60;84.40;;;;;;4914812;28;20034;-70
2022/02/04 18:32:28;;;;;;;12.73;6.30;;;5.60;84.10;;;;;;4914949;28;20514;-69
2022/02/04 18:34:55;;;;;;;10.73;6.00;;;5.70;83.80;;;;;;4928225;28;20437;-72
2022/02/04 18:37:31;;;;;;;12.13;5.65;;;5.70;83.70;;;;;;4911642;28;20122;-70
2022/02/04 18:42:47;;;;;;;12.27;5.88;;;5.70;83.50;;;;;;4910942;28;20035;-72
2022/02/04 18:45:20;;;;;;;11.30;6.15;;;5.70;83.10;;;;;;4913101;28;20052;-71
2022/02/04 18:48:05;;;;;;;10.25;6.00;;;5.80;83.00;;;;;;4910357;28;20415;-71
2022/02/04 18:58:26;;;;;;;;;;;5.70;82.70;;;;;;4903895;28;20441;-70
2022/02/04 19:00:54;;;;;;;12.93;6.18;;;5.60;82.60;;;;;;4904375;29;19926;-68
2022/02/04 19:03:22;;;;;;;11.32;6.20;;;5.60;82.50;;;;;;4907906;28;20095;-72
2022/02/04 19:06:06;;;;;;;11.45;7.40;;;5.60;82.40;;;;;;4909833;28;20932;-69
2022/02/04 19:09:06;;;;;;;13.23;6.55;;;5.50;82.60;;;;;;4910768;28;20067;-70
2022/02/04 19:11:37;;;;;;;10.43;5.68;;;5.50;82.60;;;;;;4911216;28;20492;-70
2022/02/04 19:14:12;;;;;;;11.43;6.22;;;5.40;82.80;;;;;;4911373;28;20036;-70
2022/02/04 19:16:57;;;;;;;14.45;8.32;;;5.40;82.80;;;;;;4915127;28;20130;-70
2022/02/04 19:19:39;;;;;;;10.60;6.43;;;5.30;83.10;;;;;;4912488;28;20048;-70
2022/02/04 19:24:45;;;;;;;;;;;5.30;83.10;;;;;;4910701;28;20044;-72
2022/02/04 19:27:11;;;;;;;17.40;8.50;;;5.30;83.20;;;;;;4910918;28;20001;-71
2022/02/04 19:29:43;;;;;;;14.57;7.85;;;5.40;83.10;;;;;;4911394;28;20472;-71
2022/02/04 19:32:11;;;;;;;14.43;8.00;;;5.40;83.20;;;;;;4908669;28;20380;-72
2022/02/04 19:34:36;;;;;;;12.57;7.68;;;5.30;83.20;;;;;;4916594;28;20082;-69
2022/02/04 19:37:02;;;;;;;11.63;6.95;;;5.40;83.30;;;;;;4913426;28;20175;-69
2022/02/04 19:39:28;;;;;;;12.40;6.32;;;5.30;83.30;;;;;;4919690;28;20082;-69
2022/02/04 19:42:08;;;;;;;11.50;6.40;;;5.40;83.10;;;;;;4922454;28;20035;-69
2022/02/04 19:44:36;;;;;;;14.40;7.13;;;5.40;82.90;;;;;;4911567;28;20047;-70
2022/02/04 19:47:08;;;;;;;12.75;7.07;;;5.40;82.90;;;;;;4923015;28;20040;-69